Time;durP1;ratioP1;P1;durP2;ratioP2;P2;SDS_P1;SDS_P2;PMS_P1;PMS_P2;Temp;Humidity;BMP_temperature;BMP_pressure;BME280_temperature;BME280_humidity;BME280_pressure;Samples;Min_cycle;Max_cycle;Signal;HPM_P1;HPM_P2
2023/09/30 00:01:43;;;;;;;14.15;4.50;;;12.40;99.90;;;;;;5046135;28;20140;-75
2023/09/30 00:04:09;;;;;;;12.82;4.50;;;12.30;99.90;;;;;;5066736;28;20063;-75
2023/09/30 00:06:35;;;;;;;17.65;4.88;;;12.30;99.90;;;;;;5066384;28;20048;-75
2023/09/30 00:09:01;;;;;;;13.02;4.55;;;12.20;99.90;;;;;;5071009;28;20037;-75
2023/09/30 00:11:26;;;;;;;17.10;6.00;;;12.20;99.90;;;;;;5066553;28;20062;-74
2023/09/30 00:13:52;;;;;;;15.57;5.07;;;12.10;99.90;;;;;;5062618;28;20040;-75
2023/09/30 00:16:18;;;;;;;12.77;4.82;;;12.20;99.90;;;;;;5065779;28;20553;-75
2023/09/30 00:18:44;;;;;;;10.95;4.65;;;12.20;99.90;;;;;;5066621;28;20053;-75
2023/09/30 00:21:11;;;;;;;14.40;4.90;;;12.20;99.90;;;;;;5065851;28;20050;-72
2023/09/30 00:23:37;;;;;;;10.93;4.68;;;12.20;99.90;;;;;;5063817;28;20087;-72
2023/09/30 00:26:02;;;;;;;15.02;5.03;;;12.20;99.90;;;;;;5067756;28;20044;-72
2023/09/30 00:28:28;;;;;;;11.60;5.05;;;12.20;99.90;;;;;;5065197;28;20045;-73
2023/09/30 00:30:54;;;;;;;12.18;4.47;;;12.20;99.90;;;;;;5065528;28;20044;-73
2023/09/30 00:33:20;;;;;;;14.55;4.15;;;12.10;99.90;;;;;;5066955;28;20441;-73
2023/09/30 00:35:46;;;;;;;13.57;5.13;;;12.10;99.90;;;;;;5066953;28;20045;-73
2023/09/30 00:38:12;;;;;;;11.73;5.10;;;12.20;99.90;;;;;;5065693;28;20049;-74
2023/09/30 00:40:37;;;;;;;14.15;4.75;;;12.20;99.90;;;;;;5049686;28;20045;-73
2023/09/30 00:43:03;;;;;;;16.23;5.70;;;12.10;99.90;;;;;;5063549;28;20074;-73
2023/09/30 00:45:30;;;;;;;14.23;4.85;;;12.10;99.90;;;;;;5065815;28;20048;-73
2023/09/30 00:47:56;;;;;;;14.50;4.88;;;12.10;99.90;;;;;;5065082;28;20044;-73
2023/09/30 00:50:22;;;;;;;10.77;4.95;;;12.10;99.90;;;;;;5063858;28;20504;-72
2023/09/30 00:52:49;;;;;;;16.05;5.30;;;12.00;99.90;;;;;;5069729;28;20097;-73
2023/09/30 00:55:16;;;;;;;11.52;4.65;;;12.00;99.90;;;;;;5067598;28;20056;-73
2023/09/30 00:57:44;;;;;;;10.38;4.63;;;12.00;99.90;;;;;;5064005;28;20585;-73
2023/09/30 01:00:11;;;;;;;11.27;4.78;;;11.90;99.90;;;;;;5065821;28;20507;-73
2023/09/30 01:02:40;;;;;;;12.60;5.15;;;11.90;99.90;;;;;;5065059;28;20041;-73
2023/09/30 01:05:07;;;;;;;16.33;5.68;;;11.90;99.90;;;;;;5063413;28;20485;-73
2023/09/30 01:07:34;;;;;;;8.77;4.93;;;11.80;99.90;;;;;;5065850;28;20589;-73
2023/09/30 01:09:59;;;;;;;13.90;6.18;;;11.80;99.90;;;;;;5033883;28;20094;-73
2023/09/30 01:12:25;;;;;;;17.65;5.63;;;11.80;99.90;;;;;;5048835;28;20455;-73
2023/09/30 01:14:57;;;;;;;19.63;5.60;;;11.90;99.90;;;;;;5064104;28;20072;-73
2023/09/30 01:17:23;;;;;;;17.05;6.28;;;11.90;99.90;;;;;;5066298;28;20087;-72
2023/09/30 01:19:49;;;;;;;15.93;5.45;;;11.90;99.90;;;;;;5066836;28;20074;-73
2023/09/30 01:22:16;;;;;;;12.00;5.50;;;11.90;99.90;;;;;;5062240;28;20155;-73
2023/09/30 01:24:42;;;;;;;16.05;5.80;;;11.90;99.90;;;;;;5067958;28;20045;-73
2023/09/30 01:27:09;;;;;;;13.35;5.30;;;11.90;99.90;;;;;;5065486;28;20064;-73
2023/09/30 01:29:38;;;;;;;16.80;5.88;;;11.90;99.90;;;;;;5066013;28;20401;-73
2023/09/30 01:32:07;;;;;;;11.57;5.30;;;11.90;99.90;;;;;;5063586;28;20053;-73
2023/09/30 01:34:33;;;;;;;13.95;5.35;;;11.80;99.90;;;;;;5064919;28;20053;-72
2023/09/30 01:36:59;;;;;;;14.82;5.05;;;11.80;99.90;;;;;;5066714;28;20045;-73
2023/09/30 01:39:25;;;;;;;12.13;5.35;;;11.80;99.90;;;;;;5064589;28;20053;-73
2023/09/30 01:41:50;;;;;;;12.90;5.75;;;11.80;99.90;;;;;;5068200;28;20568;-73
2023/09/30 01:44:16;;;;;;;9.95;5.07;;;11.80;99.90;;;;;;5065289;28;20040;-74
2023/09/30 01:46:42;;;;;;;13.43;5.40;;;11.90;99.90;;;;;;5067017;28;20075;-72
2023/09/30 01:49:07;;;;;;;13.43;5.60;;;11.90;99.90;;;;;;5067191;28;20094;-73
2023/09/30 01:51:33;;;;;;;15.30;5.70;;;11.90;99.90;;;;;;5068787;28;20045;-74
2023/09/30 01:53:59;;;;;;;11.98;5.47;;;11.90;99.90;;;;;;5064756;28;20032;-73
2023/09/30 01:56:25;;;;;;;14.70;5.88;;;11.90;99.90;;;;;;5051415;28;20080;-74
2023/09/30 01:58:51;;;;;;;14.52;6.00;;;11.80;99.90;;;;;;5070880;28;20044;-74
2023/09/30 02:01:16;;;;;;;13.95;5.97;;;11.80;99.90;;;;;;5056978;28;20045;-73
2023/09/30 02:03:42;;;;;;;16.52;5.85;;;11.80;99.90;;;;;;5070757;28;20052;-73
2023/09/30 02:06:08;;;;;;;13.85;5.70;;;11.80;99.90;;;;;;5071595;28;20056;-73
2023/09/30 02:08:36;;;;;;;16.60;6.15;;;11.90;99.90;;;;;;5071480;28;20033;-74
2023/09/30 02:11:03;;;;;;;14.52;5.75;;;11.90;99.90;;;;;;5068454;28;20052;-74
2023/09/30 02:13:29;;;;;;;11.43;5.22;;;11.90;99.90;;;;;;5066716;28;20049;-74
2023/09/30 02:15:57;;;;;;;14.30;5.68;;;11.80;99.90;;;;;;5069760;28;20056;-74
2023/09/30 02:18:23;;;;;;;11.30;5.47;;;11.80;99.90;;;;;;5064925;28;20396;-74
2023/09/30 02:20:50;;;;;;;21.63;7.20;;;11.80;99.90;;;;;;5069327;28;20079;-73
2023/09/30 02:23:17;;;;;;;17.60;5.50;;;11.80;99.90;;;;;;5062636;28;20055;-74
2023/09/30 02:25:43;;;;;;;12.25;5.60;;;11.90;99.90;;;;;;5069746;28;20060;-73
2023/09/30 02:28:09;;;;;;;14.63;6.35;;;11.90;99.90;;;;;;5054173;28;20052;-74
2023/09/30 02:30:35;;;;;;;17.33;6.10;;;11.90;99.90;;;;;;5069729;28;20115;-73
2023/09/30 02:33:01;;;;;;;16.30;5.72;;;11.90;99.90;;;;;;5070047;28;20036;-74
2023/09/30 02:35:27;;;;;;;15.45;6.18;;;11.90;99.90;;;;;;5054103;28;20097;-73
2023/09/30 02:37:54;;;;;;;12.40;5.53;;;11.90;99.90;;;;;;5067367;28;20080;-74
2023/09/30 02:40:19;;;;;;;13.05;5.35;;;11.90;99.90;;;;;;5067398;28;20044;-74
2023/09/30 02:42:46;;;;;;;12.93;5.93;;;12.00;99.90;;;;;;5067872;28;20045;-74
2023/09/30 02:45:12;;;;;;;14.02;6.47;;;11.90;99.90;;;;;;5069053;28;20055;-74
2023/09/30 02:47:39;;;;;;;16.77;6.38;;;11.90;99.90;;;;;;5069090;28;20095;-74
2023/09/30 02:50:11;;;;;;;13.65;6.00;;;11.90;99.90;;;;;;5068122;28;20044;-74
2023/09/30 02:52:39;;;;;;;;;;;11.90;99.90;;;;;;5066450;28;20078;-75
2023/09/30 02:55:05;;;;;;;17.10;6.18;;;11.90;99.90;;;;;;5069288;28;19921;-74
2023/09/30 02:57:31;;;;;;;13.55;6.13;;;11.90;99.90;;;;;;5049832;28;20060;-74
2023/09/30 02:59:59;;;;;;;19.92;6.97;;;11.90;99.90;;;;;;5070181;28;20064;-73
2023/09/30 03:02:24;;;;;;;14.80;6.03;;;12.00;99.90;;;;;;5065617;28;20108;-74
2023/09/30 03:04:51;;;;;;;13.90;6.50;;;12.00;99.90;;;;;;5068770;28;20080;-74
2023/09/30 03:07:19;;;;;;;12.57;6.20;;;12.00;99.90;;;;;;5068681;28;20052;-74
2023/09/30 03:09:46;;;;;;;15.23;6.70;;;12.10;99.90;;;;;;5065908;28;20052;-72
2023/09/30 03:12:12;;;;;;;16.88;6.97;;;12.10;99.90;;;;;;5067741;28;20057;-74
2023/09/30 03:14:38;;;;;;;16.38;6.22;;;12.10;99.90;;;;;;5068244;28;20056;-74
2023/09/30 03:17:03;;;;;;;13.40;6.53;;;12.10;99.90;;;;;;5068022;28;20044;-73
2023/09/30 03:19:29;;;;;;;13.93;6.38;;;12.10;99.90;;;;;;5066342;28;20044;-74
2023/09/30 03:21:56;;;;;;;17.65;6.20;;;12.10;99.90;;;;;;5064067;28;20067;-74
2023/09/30 03:24:22;;;;;;;14.93;6.65;;;12.20;99.90;;;;;;5068152;28;20063;-74
2023/09/30 03:26:49;;;;;;;16.48;7.43;;;12.20;99.90;;;;;;5064860;28;20051;-74
2023/09/30 03:29:15;;;;;;;13.30;6.75;;;12.20;99.90;;;;;;5067046;28;20032;-74
2023/09/30 03:31:41;;;;;;;18.90;7.78;;;12.20;99.90;;;;;;5067609;28;20089;-74
2023/09/30 03:34:06;;;;;;;14.88;7.45;;;12.20;99.90;;;;;;5069547;28;20554;-74
2023/09/30 03:36:33;;;;;;;17.60;6.72;;;12.20;99.90;;;;;;5062488;28;20050;-74
2023/09/30 03:39:05;;;;;;;14.27;6.47;;;12.20;99.90;;;;;;5068510;28;20078;-73
2023/09/30 03:41:32;;;;;;;17.33;6.57;;;12.20;99.90;;;;;;5064456;28;20041;-74
2023/09/30 03:43:58;;;;;;;13.65;6.35;;;12.20;99.90;;;;;;5065285;28;20471;-74
2023/09/30 03:46:25;;;;;;;15.93;6.25;;;12.20;99.90;;;;;;5064784;28;20075;-73
2023/09/30 03:48:51;;;;;;;15.73;6.35;;;12.30;99.90;;;;;;5049844;28;20281;-74
2023/09/30 03:51:17;;;;;;;12.82;6.13;;;12.30;99.90;;;;;;5066986;28;20079;-73
2023/09/30 03:53:46;;;;;;;14.43;6.65;;;12.30;99.90;;;;;;5067077;28;20052;-74
2023/09/30 03:56:13;;;;;;;17.85;7.05;;;12.30;99.90;;;;;;5065806;28;20106;-74
2023/09/30 03:58:42;;;;;;;13.13;6.25;;;12.30;99.90;;;;;;5066787;28;20045;-74
2023/09/30 04:01:11;;;;;;;18.50;7.35;;;12.30;99.90;;;;;;5064441;28;20096;-74
2023/09/30 04:03:40;;;;;;;18.88;7.28;;;12.30;99.90;;;;;;5068251;28;20040;-73
2023/09/30 04:06:06;;;;;;;15.18;6.68;;;12.30;99.90;;;;;;5063964;28;20048;-73
2023/09/30 04:08:33;;;;;;;15.90;6.72;;;12.30;99.90;;;;;;5065162;28;20052;-73
2023/09/30 04:11:00;;;;;;;12.75;6.20;;;12.30;99.90;;;;;;5066423;28;20080;-74
2023/09/30 04:13:26;;;;;;;12.60;6.53;;;12.20;99.90;;;;;;5065383;28;20067;-74
2023/09/30 04:15:52;;;;;;;13.88;6.88;;;12.20;99.90;;;;;;5067888;28;20059;-74
2023/09/30 04:18:20;;;;;;;15.80;6.63;;;12.30;99.90;;;;;;5063868;28;20546;-74
2023/09/30 04:20:46;;;;;;;15.70;6.53;;;12.30;99.90;;;;;;5066797;28;20065;-74
2023/09/30 04:23:12;;;;;;;16.67;7.35;;;12.20;99.90;;;;;;5065881;28;20499;-74
2023/09/30 04:25:38;;;;;;;17.20;7.22;;;12.20;99.90;;;;;;5063271;28;20048;-74
2023/09/30 04:28:07;;;;;;;19.50;6.97;;;12.20;99.90;;;;;;5066378;28;20059;-74
2023/09/30 04:30:33;;;;;;;16.52;6.97;;;12.20;99.90;;;;;;5068778;28;20542;-73
2023/09/30 04:33:04;;;;;;;12.63;6.60;;;12.10;99.90;;;;;;5038931;28;20045;-72
2023/09/30 04:35:30;;;;;;;14.73;7.10;;;12.10;99.90;;;;;;5064556;28;20049;-74
2023/09/30 04:38:01;;;;;;;13.27;6.97;;;12.10;99.90;;;;;;5047295;28;20037;-73
2023/09/30 04:40:27;;;;;;;15.95;7.03;;;12.10;99.90;;;;;;5063907;28;20066;-74
2023/09/30 04:42:58;;;;;;;13.95;7.07;;;12.10;99.90;;;;;;5067797;28;20049;-73
2023/09/30 04:45:25;;;;;;;11.55;6.00;;;12.00;99.90;;;;;;5047678;28;20071;-73
2023/09/30 04:47:52;;;;;;;15.20;7.20;;;12.00;99.90;;;;;;5062269;28;20413;-73
2023/09/30 04:50:21;;;;;;;16.50;7.35;;;12.00;99.90;;;;;;5065836;28;20033;-73
2023/09/30 04:52:47;;;;;;;13.00;6.60;;;11.90;99.90;;;;;;5064593;28;20040;-73
2023/09/30 04:55:16;;;;;;;15.05;7.03;;;11.90;99.90;;;;;;5069271;28;20052;-73
2023/09/30 04:57:46;;;;;;;11.15;6.65;;;11.90;99.90;;;;;;5062540;28;20567;-73
2023/09/30 05:00:16;;;;;;;16.33;6.50;;;11.80;99.90;;;;;;5065011;28;20453;-73
2023/09/30 05:02:44;;;;;;;15.37;6.80;;;11.80;99.90;;;;;;5067401;28;20059;-73
2023/09/30 05:05:10;;;;;;;15.55;7.30;;;11.80;99.90;;;;;;5066384;28;20054;-74
2023/09/30 05:07:36;;;;;;;15.07;6.93;;;11.80;99.90;;;;;;5061818;28;20139;-73
2023/09/30 05:10:10;;;;;;;13.90;6.90;;;11.80;99.90;;;;;;5069366;28;20066;-72
2023/09/30 05:12:36;;;;;;;16.45;7.47;;;11.80;99.90;;;;;;5066097;28;20091;-73
2023/09/30 05:15:02;;;;;;;16.48;6.72;;;11.80;99.90;;;;;;5067677;28;20044;-73
2023/09/30 05:17:28;;;;;;;13.85;6.80;;;11.80;99.90;;;;;;5066799;28;20045;-73
2023/09/30 05:19:56;;;;;;;16.00;7.00;;;11.70;99.90;;;;;;5065612;28;20051;-73
2023/09/30 05:22:24;;;;;;;13.38;6.93;;;11.70;99.90;;;;;;5064117;28;20080;-73
2023/09/30 05:24:53;;;;;;;13.75;7.13;;;11.70;99.90;;;;;;5065126;28;20057;-73
2023/09/30 05:27:19;;;;;;;14.93;7.40;;;11.70;99.90;;;;;;5063892;28;20052;-73
2023/09/30 05:29:45;;;;;;;10.48;5.90;;;11.70;99.90;;;;;;5072063;28;20072;-73
2023/09/30 05:32:11;;;;;;;16.02;7.32;;;11.70;99.90;;;;;;5067986;28;20044;-73
2023/09/30 05:34:38;;;;;;;13.68;7.35;;;11.70;99.90;;;;;;5069662;28;20071;-78
2023/09/30 05:37:04;;;;;;;16.88;7.72;;;11.70;99.90;;;;;;5069042;28;20055;-79
2023/09/30 05:39:31;;;;;;;17.73;7.93;;;11.70;99.90;;;;;;5066865;28;20062;-72
2023/09/30 05:41:57;;;;;;;19.45;7.75;;;11.80;99.90;;;;;;5054128;28;20078;-72
2023/09/30 05:44:23;;;;;;;14.63;7.07;;;11.80;99.90;;;;;;5066487;28;20071;-72
2023/09/30 05:46:49;;;;;;;17.80;7.97;;;11.80;99.90;;;;;;5052499;28;20048;-72
2023/09/30 05:49:15;;;;;;;17.48;7.32;;;11.90;99.90;;;;;;5072715;28;20083;-72
2023/09/30 05:51:41;;;;;;;14.43;6.55;;;11.80;99.90;;;;;;5053678;28;20044;-72
2023/09/30 05:54:09;;;;;;;12.95;7.18;;;11.90;99.90;;;;;;5060006;28;20135;-72
2023/09/30 05:56:39;;;;;;;14.00;7.47;;;11.90;99.90;;;;;;5073647;28;20063;-73
2023/09/30 05:59:06;;;;;;;15.68;7.93;;;11.80;99.90;;;;;;5079370;28;20672;-72
2023/09/30 06:01:32;;;;;;;18.15;7.75;;;11.80;99.90;;;;;;5063918;28;20059;-72
2023/09/30 06:03:59;;;;;;;13.55;7.88;;;11.80;99.90;;;;;;5068523;28;20049;-72
2023/09/30 06:06:26;;;;;;;15.20;8.20;;;11.80;99.90;;;;;;5065021;28;20029;-88
2023/09/30 06:08:51;;;;;;;17.20;8.35;;;11.80;99.90;;;;;;5073054;28;20048;-77
2023/09/30 06:11:29;;;;;;;17.85;8.82;;;11.80;99.90;;;;;;5068116;28;20053;-70
2023/09/30 06:13:55;;;;;;;15.52;8.07;;;11.90;99.90;;;;;;5059576;28;20036;-73
2023/09/30 06:16:21;;;;;;;16.42;8.27;;;11.80;99.90;;;;;;5075620;28;20076;-73
2023/09/30 06:18:49;;;;;;;15.30;7.47;;;11.80;99.90;;;;;;5066757;28;20084;-73
2023/09/30 06:21:17;;;;;;;14.82;7.38;;;11.80;99.90;;;;;;5076299;28;20087;-73
2023/09/30 06:23:43;;;;;;;15.20;7.60;;;11.80;99.90;;;;;;5067842;28;20095;-73
2023/09/30 06:26:09;;;;;;;14.93;8.23;;;11.80;99.90;;;;;;5067703;28;20044;-73
2023/09/30 06:28:40;;;;;;;16.75;8.15;;;11.80;99.90;;;;;;5052610;28;20040;-73
2023/09/30 06:31:10;;;;;;;18.05;8.60;;;11.80;99.90;;;;;;5063593;28;20060;-74
2023/09/30 06:33:38;;;;;;;19.40;8.68;;;11.80;99.90;;;;;;5070293;28;20048;-73
2023/09/30 06:36:13;;;;;;;16.80;8.68;;;11.80;99.90;;;;;;5067976;28;20057;-73
2023/09/30 06:38:40;;;;;;;15.13;8.75;;;11.90;99.90;;;;;;5069784;28;20415;-73
2023/09/30 06:41:06;;;;;;;23.90;9.15;;;11.90;99.90;;;;;;5061170;28;20136;-73
2023/09/30 06:43:33;;;;;;;17.23;7.88;;;11.90;99.90;;;;;;5070332;28;20075;-73
2023/09/30 06:45:59;;;;;;;16.60;8.82;;;12.00;99.90;;;;;;5073037;28;20040;-73
2023/09/30 06:48:24;;;;;;;19.73;8.85;;;12.00;99.90;;;;;;5068392;28;20052;-73
2023/09/30 06:50:52;;;;;;;18.40;8.63;;;12.00;99.90;;;;;;5067309;28;20048;-73
2023/09/30 06:53:19;;;;;;;16.00;8.77;;;12.10;99.90;;;;;;5060926;28;20057;-73
2023/09/30 06:55:45;;;;;;;17.58;8.65;;;12.20;99.90;;;;;;5063991;28;20069;-73
2023/09/30 06:58:11;;;;;;;18.73;8.38;;;12.20;99.90;;;;;;5075665;28;20055;-74
2023/09/30 07:00:38;;;;;;;17.02;8.50;;;12.30;99.90;;;;;;5073814;28;20111;-74
2023/09/30 07:03:05;;;;;;;19.17;8.80;;;12.30;99.90;;;;;;5070948;28;20082;-73
2023/09/30 07:05:31;;;;;;;13.63;8.48;;;12.40;99.90;;;;;;5067977;28;20044;-73
2023/09/30 07:07:56;;;;;;;17.85;8.90;;;12.40;99.90;;;;;;5076640;28;20053;-72
2023/09/30 07:10:22;;;;;;;18.00;10.15;;;12.50;99.90;;;;;;5065534;28;20041;-73
2023/09/30 07:12:48;;;;;;;18.67;8.95;;;12.50;99.90;;;;;;5069012;28;20036;-73
2023/09/30 07:15:14;;;;;;;15.40;9.00;;;12.60;99.90;;;;;;5059581;28;20044;-72
2023/09/30 07:17:40;;;;;;;15.50;9.05;;;12.70;99.90;;;;;;5064437;28;20082;-73
2023/09/30 07:20:07;;;;;;;18.27;9.65;;;12.70;99.90;;;;;;5074452;28;20092;-73
2023/09/30 07:22:34;;;;;;;14.98;9.25;;;12.80;99.90;;;;;;5064526;28;20594;-72
2023/09/30 07:25:00;;;;;;;17.27;10.18;;;12.90;99.90;;;;;;5067836;28;20593;-73
2023/09/30 07:27:25;;;;;;;17.85;9.25;;;13.00;99.90;;;;;;5068989;28;20148;-73
2023/09/30 07:29:51;;;;;;;16.67;9.18;;;13.10;99.90;;;;;;5064902;28;20053;-73
2023/09/30 07:32:17;;;;;;;17.65;9.48;;;13.20;99.90;;;;;;5063684;28;20043;-73
2023/09/30 07:34:43;;;;;;;17.90;9.40;;;13.30;99.90;;;;;;5065797;28;20048;-81
2023/09/30 07:37:09;;;;;;;14.98;8.77;;;13.30;99.90;;;;;;5062943;28;20052;-74
2023/09/30 07:39:35;;;;;;;20.48;10.02;;;13.40;99.90;;;;;;5068240;28;20051;-76
2023/09/30 07:42:01;;;;;;;15.90;10.15;;;13.50;99.90;;;;;;5066327;28;20044;-73
2023/09/30 07:44:27;;;;;;;18.08;9.98;;;13.60;99.90;;;;;;5068897;28;20182;-73
2023/09/30 07:46:53;;;;;;;17.88;9.90;;;13.60;99.90;;;;;;5056660;28;20052;-73
2023/09/30 07:49:19;;;;;;;16.98;9.57;;;13.70;99.90;;;;;;5075458;28;20095;-73
2023/09/30 07:51:46;;;;;;;16.48;9.95;;;13.80;99.90;;;;;;5070658;28;20139;-73
2023/09/30 07:54:12;;;;;;;14.60;8.32;;;13.90;99.90;;;;;;5066392;28;20049;-73
2023/09/30 07:56:38;;;;;;;15.75;8.52;;;13.90;99.90;;;;;;5062208;28;20040;-73
2023/09/30 07:59:05;;;;;;;18.60;9.85;;;14.00;99.90;;;;;;5063219;28;20079;-73
2023/09/30 08:01:31;;;;;;;15.85;10.02;;;14.10;99.90;;;;;;5068202;28;20216;-73
2023/09/30 08:03:57;;;;;;;18.17;9.75;;;14.20;99.90;;;;;;5051496;28;20049;-73
2023/09/30 08:06:23;;;;;;;13.45;9.40;;;14.30;99.90;;;;;;5067597;28;20102;-73
2023/09/30 08:08:49;;;;;;;17.48;10.32;;;14.30;99.90;;;;;;5071998;28;20108;-73
2023/09/30 08:11:17;;;;;;;15.30;8.93;;;14.40;99.90;;;;;;5063889;28;20055;-73
2023/09/30 08:13:43;;;;;;;19.55;9.45;;;14.50;99.90;;;;;;5064772;28;20052;-73
2023/09/30 08:16:08;;;;;;;15.93;8.70;;;14.60;99.90;;;;;;5068073;28;20442;-73
2023/09/30 08:18:34;;;;;;;13.85;8.65;;;14.60;99.90;;;;;;5072567;28;20029;-73
2023/09/30 08:21:01;;;;;;;18.48;8.98;;;14.70;99.90;;;;;;5040711;28;20065;-73
2023/09/30 08:23:27;;;;;;;18.20;8.70;;;14.80;99.90;;;;;;5067758;28;20102;-72
2023/09/30 08:25:54;;;;;;;16.33;8.80;;;14.90;99.90;;;;;;5066828;28;20044;-72
2023/09/30 08:28:20;;;;;;;18.33;8.75;;;15.00;99.90;;;;;;5076677;28;20064;-75
2023/09/30 08:30:46;;;;;;;14.52;8.15;;;15.10;99.90;;;;;;5067342;28;20053;-75
2023/09/30 08:33:11;;;;;;;14.48;8.55;;;15.10;99.90;;;;;;5063963;28;20055;-74
2023/09/30 08:35:38;;;;;;;17.58;9.10;;;15.20;99.90;;;;;;5066713;28;20044;-75
2023/09/30 08:38:04;;;;;;;12.88;7.80;;;15.30;99.90;;;;;;5063273;28;20070;-74
2023/09/30 08:40:29;;;;;;;14.88;8.48;;;15.40;99.90;;;;;;5074612;28;20116;-75
2023/09/30 08:42:55;;;;;;;13.23;8.50;;;15.50;99.90;;;;;;5054667;28;20048;-75
2023/09/30 08:45:21;;;;;;;12.90;8.65;;;15.50;99.90;;;;;;5047981;28;20052;-74
2023/09/30 08:47:47;;;;;;;15.25;8.25;;;15.60;99.90;;;;;;5061919;28;20046;-75
2023/09/30 08:50:14;;;;;;;11.07;7.32;;;15.70;99.90;;;;;;5049842;28;20563;-75
2023/09/30 08:52:41;;;;;;;14.73;8.65;;;15.90;99.90;;;;;;5067509;28;20087;-75
2023/09/30 08:55:12;;;;;;;14.43;6.80;;;15.90;99.90;;;;;;5065884;28;20053;-75
2023/09/30 08:57:40;;;;;;;13.48;7.72;;;16.00;99.90;;;;;;5066165;28;20049;-75
2023/09/30 09:00:06;;;;;;;13.13;6.90;;;16.10;99.90;;;;;;5051280;28;20728;-75
2023/09/30 09:02:35;;;;;;;12.68;6.78;;;16.20;99.90;;;;;;5071097;28;20048;-74
2023/09/30 09:05:02;;;;;;;12.05;6.85;;;16.20;99.90;;;;;;5074229;28;20056;-75
2023/09/30 09:07:27;;;;;;;12.77;6.35;;;16.30;99.90;;;;;;5070212;28;20106;-75
2023/09/30 09:10:07;;;;;;;14.40;5.82;;;16.50;99.90;;;;;;5074159;28;20118;-74
2023/09/30 09:12:42;;;;;;;15.23;6.43;;;16.60;99.90;;;;;;5072929;28;20102;-75
2023/09/30 09:15:24;;;;;;;12.30;6.00;;;16.60;99.90;;;;;;5054188;28;20098;-75
2023/09/30 09:17:51;;;;;;;13.57;6.67;;;16.70;99.90;;;;;;5061042;28;20040;-74
2023/09/30 09:20:22;;;;;;;10.25;5.38;;;16.70;99.90;;;;;;5069423;28;20311;-75
2023/09/30 09:22:52;;;;;;;10.52;5.82;;;16.70;99.90;;;;;;5062370;28;20060;-75
2023/09/30 09:25:18;;;;;;;12.63;6.15;;;16.80;99.90;;;;;;5078083;28;20263;-75
2023/09/30 09:27:44;;;;;;;11.55;6.68;;;16.80;99.90;;;;;;5047679;28;20049;-74
2023/09/30 09:30:21;;;;;;;11.52;5.45;;;16.90;99.90;;;;;;5072853;28;20052;-75
2023/09/30 09:33:00;;;;;;;12.02;6.10;;;17.00;99.90;;;;;;5085195;28;20056;-75
2023/09/30 09:35:30;;;;;;;12.93;6.43;;;17.10;99.90;;;;;;5077268;28;20067;-75
2023/09/30 09:38:03;;;;;;;13.20;6.40;;;17.10;99.90;;;;;;5072358;28;20061;-75
2023/09/30 09:40:40;;;;;;;12.02;5.25;;;17.20;99.90;;;;;;5077082;28;20059;-74
2023/09/30 09:43:06;;;;;;;13.25;5.05;;;17.30;99.90;;;;;;5070019;28;20317;-75
2023/09/30 09:45:40;;;;;;;9.43;5.03;;;17.40;99.90;;;;;;5077849;28;20044;-74
2023/09/30 09:48:06;;;;;;;13.73;6.05;;;17.40;99.90;;;;;;5069671;28;20052;-75
2023/09/30 09:50:32;;;;;;;13.70;5.60;;;17.40;99.90;;;;;;5079227;28;20048;-75
2023/09/30 09:53:00;;;;;;;12.02;5.63;;;17.50;99.90;;;;;;5059496;28;20049;-75
2023/09/30 09:55:27;;;;;;;12.50;5.85;;;17.50;99.90;;;;;;5080464;28;20060;-76
2023/09/30 09:57:54;;;;;;;15.35;5.72;;;17.60;99.90;;;;;;5072773;28;20583;-75
2023/09/30 10:00:23;;;;;;;11.82;5.53;;;17.70;99.90;;;;;;5078379;28;20128;-75
2023/09/30 10:02:50;;;;;;;9.35;5.13;;;17.80;99.90;;;;;;5066654;28;20091;-75
2023/09/30 10:05:17;;;;;;;9.52;4.75;;;17.80;99.90;;;;;;5065178;28;20056;-75
2023/09/30 10:08:07;;;;;;;11.52;5.63;;;17.80;99.90;;;;;;5073421;28;20138;-75
2023/09/30 10:10:37;;;;;;;15.73;5.65;;;17.80;99.90;;;;;;5068690;28;20058;-74
2023/09/30 10:13:03;;;;;;;10.60;4.18;;;17.90;99.90;;;;;;5068409;28;20429;-75
2023/09/30 10:15:30;;;;;;;6.22;3.67;;;18.00;99.90;;;;;;5047960;28;20049;-75
2023/09/30 10:18:04;;;;;;;8.75;3.90;;;18.00;99.90;;;;;;5044047;28;20063;-76
2023/09/30 10:20:32;;;;;;;8.82;4.13;;;18.10;99.90;;;;;;5075601;28;20084;-75
2023/09/30 10:23:27;;;;;;;5.80;3.10;;;18.20;99.90;;;;;;5065737;28;20112;-76
2023/09/30 10:26:15;;;;;;;9.82;4.25;;;18.30;99.90;;;;;;5077685;28;20074;-75
2023/09/30 10:28:46;;;;;;;11.98;3.65;;;18.30;99.90;;;;;;5076208;28;20055;-86
2023/09/30 10:31:25;;;;;;;8.75;3.70;;;18.30;99.90;;;;;;5072091;28;20055;-74
2023/09/30 10:34:04;;;;;;;6.80;4.00;;;18.50;99.90;;;;;;5067434;28;20087;-75
2023/09/30 10:36:40;;;;;;;9.40;3.75;;;18.60;99.90;;;;;;5066819;28;20050;-75
2023/09/30 10:39:13;;;;;;;9.30;3.80;;;18.70;99.90;;;;;;5068691;28;20500;-75
2023/09/30 10:41:39;;;;;;;9.25;3.90;;;18.60;99.90;;;;;;5068399;28;20049;-75
2023/09/30 10:44:26;;;;;;;8.63;4.10;;;18.60;99.90;;;;;;5066629;28;20067;-75
2023/09/30 10:46:55;;;;;;;8.95;3.63;;;18.60;99.90;;;;;;5068347;28;20060;-75
2023/09/30 10:49:24;;;;;;;12.32;3.60;;;18.70;99.90;;;;;;5072076;28;20052;-76
2023/09/30 10:51:54;;;;;;;11.32;3.55;;;18.60;99.90;;;;;;5071978;28;20055;-75
2023/09/30 10:54:25;;;;;;;13.57;4.32;;;18.60;99.90;;;;;;5073838;28;20816;-75
2023/09/30 10:56:52;;;;;;;6.68;3.22;;;18.70;99.90;;;;;;5075256;28;20579;-75
2023/09/30 10:59:26;;;;;;;9.88;2.92;;;18.70;99.90;;;;;;5073023;28;20044;-74
2023/09/30 11:01:53;;;;;;;9.90;2.97;;;18.70;99.90;;;;;;5072241;28;20503;-76
2023/09/30 11:04:19;;;;;;;10.05;2.90;;;18.70;99.90;;;;;;5072005;28;20095;-75
2023/09/30 11:06:46;;;;;;;8.57;2.67;;;18.60;99.90;;;;;;5047905;28;20043;-75
2023/09/30 11:09:22;;;;;;;6.88;2.78;;;18.60;99.90;;;;;;5066217;28;20099;-75
2023/09/30 11:11:50;;;;;;;6.72;2.80;;;18.70;99.90;;;;;;5050839;28;20049;-76
2023/09/30 11:14:22;;;;;;;8.90;2.58;;;18.70;99.90;;;;;;5067965;28;20237;-76
2023/09/30 11:16:50;;;;;;;5.90;2.38;;;18.70;99.90;;;;;;5076382;28;20040;-75
2023/09/30 11:19:16;;;;;;;6.43;2.50;;;18.50;99.90;;;;;;5073910;28;20060;-76
2023/09/30 11:21:45;;;;;;;4.95;2.33;;;18.40;99.90;;;;;;5066632;28;20061;-75
2023/09/30 11:24:11;;;;;;;5.97;2.38;;;18.30;99.90;;;;;;5061119;28;20079;-75
2023/09/30 11:26:37;;;;;;;5.32;2.25;;;18.20;99.90;;;;;;5076021;28;20070;-76
2023/09/30 11:29:16;;;;;;;9.23;2.65;;;18.10;99.90;;;;;;5071115;28;20052;-75
2023/09/30 11:31:46;;;;;;;7.93;2.63;;;18.10;99.90;;;;;;5071046;28;20045;-93
2023/09/30 11:34:13;;;;;;;9.10;2.50;;;18.00;99.90;;;;;;5061164;28;20565;-73
2023/09/30 11:36:42;;;;;;;7.43;3.00;;;18.00;99.90;;;;;;5067460;28;20055;-76
2023/09/30 11:39:09;;;;;;;7.50;2.63;;;18.10;99.90;;;;;;5076074;28;20075;-77
2023/09/30 11:41:43;;;;;;;8.43;2.50;;;18.10;99.90;;;;;;5059524;28;20092;-76
2023/09/30 11:44:11;;;;;;;6.65;2.53;;;18.10;99.90;;;;;;5073487;28;20048;-76
2023/09/30 11:47:08;;;;;;;7.20;2.78;;;18.30;99.90;;;;;;5072897;28;20513;-76
2023/09/30 11:49:35;;;;;;;6.22;2.22;;;18.60;99.90;;;;;;5059690;28;20412;-76
2023/09/30 11:52:09;;;;;;;8.85;2.40;;;18.70;99.90;;;;;;5071966;28;20047;-76
2023/09/30 11:54:41;;;;;;;5.13;2.30;;;18.90;99.90;;;;;;5061192;28;20036;-76
2023/09/30 11:57:10;;;;;;;6.13;2.55;;;19.10;99.90;;;;;;5071220;28;20470;-76
2023/09/30 11:59:38;;;;;;;5.85;2.20;;;19.10;99.90;;;;;;5067537;28;20414;-76
2023/09/30 12:02:05;;;;;;;5.05;2.10;;;19.20;99.90;;;;;;5067085;28;20048;-75
2023/09/30 12:04:32;;;;;;;7.50;2.10;;;19.20;99.90;;;;;;5060197;28;20087;-75
2023/09/30 12:06:58;;;;;;;6.28;2.45;;;19.30;99.90;;;;;;5067580;28;20048;-84
2023/09/30 12:09:26;;;;;;;8.73;2.58;;;19.30;99.90;;;;;;5066521;28;20053;-75
2023/09/30 12:11:53;;;;;;;3.25;1.98;;;19.30;99.90;;;;;;5064239;28;20059;-75
2023/09/30 12:14:22;;;;;;;8.10;2.60;;;19.30;99.90;;;;;;5039180;28;20064;-75
2023/09/30 12:16:49;;;;;;;8.13;2.75;;;19.30;99.90;;;;;;5061755;28;20047;-75
2023/09/30 12:19:15;;;;;;;7.43;2.50;;;19.20;99.90;;;;;;5058118;28;20049;-75
2023/09/30 12:21:42;;;;;;;7.18;2.30;;;19.00;99.90;;;;;;5069252;28;20056;-75
2023/09/30 12:24:13;;;;;;;8.15;2.08;;;18.90;99.90;;;;;;5075236;28;20053;-75
2023/09/30 12:26:41;;;;;;;5.05;2.22;;;18.80;99.90;;;;;;5072900;28;20048;-75
2023/09/30 12:29:09;;;;;;;6.35;2.30;;;18.60;99.90;;;;;;5070197;28;20051;-76
2023/09/30 12:31:34;;;;;;;5.30;2.17;;;18.50;99.90;;;;;;5075036;28;20040;-75
2023/09/30 12:34:00;;;;;;;5.10;2.10;;;18.40;99.90;;;;;;5074877;28;20093;-75
2023/09/30 12:36:26;;;;;;;7.93;2.08;;;18.40;99.90;;;;;;5056419;28;20060;-73
2023/09/30 12:38:51;;;;;;;5.20;2.13;;;18.50;99.90;;;;;;5066428;28;20084;-73
2023/09/30 12:41:19;;;;;;;9.05;2.50;;;18.50;99.90;;;;;;5071585;28;20044;-75